createdAt,value
2019-05-17T00:00:10.171Z,16.60
2019-05-17T00:02:42.713Z,16.60
2019-05-17T00:05:17.473Z,16.70
2019-05-17T00:07:49.421Z,16.80
2019-05-17T00:10:22.484Z,17.00
2019-05-17T00:12:56.373Z,17.20
2019-05-17T00:15:28.807Z,17.40
2019-05-17T00:18:01.355Z,17.40
2019-05-17T00:20:37.170Z,17.30
2019-05-17T00:23:09.497Z,17.30
2019-05-17T00:25:42.056Z,17.40
2019-05-17T00:28:37.920Z,17.40
2019-05-17T00:31:06.630Z,17.30
2019-05-17T00:33:43.874Z,17.20
2019-05-17T00:36:17.642Z,17.10
2019-05-17T00:38:51.594Z,17.20
2019-05-17T00:41:23.670Z,17.40
2019-05-17T00:43:57.202Z,17.60
2019-05-17T00:46:30.126Z,17.80
2019-05-17T00:49:03.010Z,17.80
2019-05-17T00:51:37.063Z,17.60
2019-05-17T00:54:09.609Z,17.40
2019-05-17T00:56:42.631Z,17.30
2019-05-17T00:59:17.023Z,17.20
2019-05-17T01:01:49.470Z,17.10
2019-05-17T01:04:22.255Z,17.00
2019-05-17T01:06:56.269Z,16.90
2019-05-17T01:09:29.089Z,16.80
2019-05-17T01:12:02.037Z,16.70
2019-05-17T01:14:34.583Z,16.70
2019-05-17T01:17:07.407Z,16.70
2019-05-17T01:19:40.416Z,16.70
2019-05-17T01:22:12.856Z,16.60
2019-05-17T01:24:46.287Z,16.60
2019-05-17T01:27:20.139Z,16.60
2019-05-17T01:29:52.754Z,16.60
2019-05-17T01:32:26.645Z,16.50
2019-05-17T01:34:59.721Z,16.50
2019-05-17T01:37:32.890Z,16.60
2019-05-17T01:40:06.741Z,16.60
2019-05-17T01:42:40.760Z,16.70
2019-05-17T01:45:13.525Z,16.70
2019-05-17T01:47:47.525Z,16.80
2019-05-17T01:50:20.339Z,16.70
2019-05-17T01:52:53.099Z,16.70
2019-05-17T01:55:26.575Z,16.70
2019-05-17T01:57:59.376Z,16.60
2019-05-17T02:00:32.434Z,16.60
2019-05-17T02:03:07.000Z,16.50
2019-05-17T02:05:40.141Z,16.50
2019-05-17T02:08:12.788Z,16.40
2019-05-17T02:10:46.596Z,16.40
2019-05-17T02:13:19.874Z,16.40
2019-05-17T02:15:52.403Z,16.40
2019-05-17T02:18:26.624Z,16.40
2019-05-17T02:20:59.539Z,16.30
2019-05-17T02:23:32.629Z,16.30
2019-05-17T02:26:06.662Z,16.30
2019-05-17T02:28:41.447Z,16.20
2019-05-17T02:31:14.472Z,16.10
2019-05-17T02:33:47.699Z,16.10
2019-05-17T02:39:13.171Z,16.00
2019-05-17T02:41:45.972Z,16.00
2019-05-17T02:44:22.902Z,16.00
2019-05-17T02:46:53.998Z,16.00
2019-05-17T02:49:27.468Z,16.00
2019-05-17T02:52:02.947Z,16.00
2019-05-17T02:54:34.387Z,15.90
2019-05-17T02:57:06.939Z,15.90
2019-05-17T02:59:43.147Z,15.80
2019-05-17T03:02:13.945Z,15.80
2019-05-17T03:04:46.750Z,15.80
2019-05-17T03:07:22.977Z,15.80
2019-05-17T03:10:11.766Z,15.80
2019-05-17T03:12:28.447Z,15.80
2019-05-17T03:15:03.811Z,15.90
2019-05-17T03:17:35.037Z,16.10
2019-05-17T03:20:07.952Z,16.20
2019-05-17T03:25:33.340Z,16.40
2019-05-17T03:28:17.087Z,16.40
2019-05-17T03:30:55.620Z,16.30
2019-05-17T03:33:26.668Z,16.10
2019-05-17T03:36:05.802Z,16.00
2019-05-17T03:38:36.405Z,15.90
2019-05-17T03:41:18.709Z,15.80
2019-05-17T03:43:44.705Z,15.80
2019-05-17T03:46:22.909Z,15.80
2019-05-17T03:48:53.329Z,15.80
2019-05-17T03:51:26.086Z,15.70
2019-05-17T03:54:09.190Z,15.60
2019-05-17T03:56:33.196Z,15.50
2019-05-17T03:59:05.920Z,15.30
2019-05-17T04:01:39.327Z,15.20
2019-05-17T04:04:13.409Z,15.10
2019-05-17T04:06:46.664Z,15.00
2019-05-17T04:09:22.236Z,14.90
2019-05-17T04:12:02.646Z,14.90
2019-05-17T04:14:33.863Z,14.90
2019-05-17T04:17:06.911Z,14.80
2019-05-17T04:19:42.408Z,14.80
2019-05-17T04:22:24.035Z,14.90
2019-05-17T04:24:57.749Z,14.90
2019-05-17T04:27:29.704Z,15.00
2019-05-17T04:30:05.126Z,15.00
2019-05-17T04:32:38.895Z,15.00
2019-05-17T04:35:13.154Z,15.00
2019-05-17T04:37:46.282Z,15.00
2019-05-17T04:40:19.260Z,15.00
2019-05-17T04:42:52.649Z,15.00
2019-05-17T04:45:26.215Z,15.00
2019-05-17T04:47:58.959Z,14.90
2019-05-17T04:50:35.673Z,14.90
2019-05-17T04:53:08.809Z,14.80
2019-05-17T04:55:44.208Z,14.80
2019-05-17T04:58:15.221Z,14.70
2019-05-17T05:00:53.667Z,14.70
2019-05-17T05:03:25.548Z,14.60
2019-05-17T05:06:02.962Z,14.60
2019-05-17T05:08:36.919Z,14.50
2019-05-17T05:11:12.453Z,14.50
2019-05-17T05:13:43.750Z,14.50
2019-05-17T05:16:16.856Z,14.50
2019-05-17T05:18:51.919Z,14.50
2019-05-17T05:21:23.799Z,14.50
2019-05-17T05:23:56.525Z,14.50
2019-05-17T05:26:31.787Z,14.50
2019-05-17T05:29:07.122Z,14.50
2019-05-17T05:31:40.011Z,14.50
2019-05-17T05:34:12.559Z,14.50
2019-05-17T05:36:45.687Z,14.50
2019-05-17T05:39:18.478Z,14.50
2019-05-17T05:41:51.836Z,14.40
2019-05-17T05:44:25.701Z,14.50
2019-05-17T05:46:59.084Z,14.50
2019-05-17T05:49:42.589Z,14.50
2019-05-17T05:52:09.443Z,14.40
2019-05-17T05:54:42.167Z,14.40
2019-05-17T05:57:21.848Z,14.40
2019-05-17T05:59:55.237Z,14.40
2019-05-17T06:02:32.149Z,14.40
2019-05-17T06:05:04.202Z,14.30
2019-05-17T06:07:43.243Z,14.30
2019-05-17T06:10:16.272Z,14.20
2019-05-17T06:12:51.614Z,14.20
2019-05-17T06:15:26.900Z,14.20
2019-05-17T06:18:04.309Z,14.10
2019-05-17T06:20:38.522Z,14.10
2019-05-17T06:23:12.921Z,14.00
2019-05-17T06:25:56.140Z,14.00
2019-05-17T06:31:37.072Z,13.70
2019-05-17T06:34:25.632Z,13.60
2019-05-17T06:37:16.501Z,13.50
2019-05-17T06:40:03.478Z,13.40
2019-05-17T06:42:41.226Z,13.30
2019-05-17T06:45:41.659Z,13.20
2019-05-17T06:48:23.411Z,13.10
2019-05-17T06:51:02.844Z,13.10
2019-05-17T06:53:44.618Z,13.00
2019-05-17T06:56:22.937Z,12.90
2019-05-17T06:58:55.719Z,12.80
2019-05-17T07:01:30.338Z,12.80
2019-05-17T07:04:11.634Z,12.80
2019-05-17T07:06:51.581Z,12.70
2019-05-17T07:09:35.860Z,12.60
2019-05-17T07:12:05.671Z,12.60
2019-05-17T07:14:50.557Z,12.50
2019-05-17T07:17:26.684Z,12.40
2019-05-17T07:19:59.762Z,12.40
2019-05-17T07:22:33.908Z,12.30
2019-05-17T07:25:07.731Z,12.30
2019-05-17T07:27:45.457Z,12.20
2019-05-17T07:30:16.345Z,12.20
2019-05-17T07:33:00.451Z,12.10
2019-05-17T07:35:33.572Z,12.00
2019-05-17T07:38:06.519Z,11.90
2019-05-17T07:40:45.847Z,11.80
2019-05-17T07:43:20.563Z,11.80
2019-05-17T07:45:56.772Z,11.80
2019-05-17T07:48:31.392Z,11.70
2019-05-17T07:51:04.301Z,11.70
2019-05-17T07:53:49.620Z,11.60
2019-05-17T07:56:26.759Z,11.60
2019-05-17T07:59:00.053Z,11.60
2019-05-17T08:01:32.993Z,11.60
2019-05-17T08:04:05.585Z,11.50
2019-05-17T08:06:40.340Z,11.50
2019-05-17T08:09:15.757Z,11.50
2019-05-17T08:11:50.211Z,11.50
2019-05-17T08:14:30.079Z,11.50
2019-05-17T08:16:56.814Z,11.40
2019-05-17T08:19:30.829Z,11.40
2019-05-17T08:22:04.572Z,11.30
2019-05-17T08:24:39.993Z,11.30
2019-05-17T08:27:12.450Z,11.20
2019-05-17T08:29:50.024Z,11.20
2019-05-17T08:32:22.591Z,11.10
2019-05-17T08:34:55.597Z,11.10
2019-05-17T08:37:30.164Z,11.10
2019-05-17T08:40:03.670Z,11.00
2019-05-17T08:42:36.213Z,11.00
2019-05-17T08:45:09.878Z,11.00
2019-05-17T08:47:43.452Z,11.00
2019-05-17T08:50:20.087Z,11.00
2019-05-17T08:52:52.867Z,11.00
2019-05-17T08:55:25.840Z,11.00
2019-05-17T08:58:00.860Z,11.00
2019-05-17T09:00:32.676Z,11.00
2019-05-17T09:03:05.335Z,11.10
2019-05-17T09:05:41.394Z,11.10
2019-05-17T09:08:12.935Z,11.10
2019-05-17T09:10:46.518Z,11.10
2019-05-17T09:13:20.381Z,11.00
2019-05-17T09:15:53.072Z,11.00
2019-05-17T09:18:25.646Z,11.00
2019-05-17T09:21:00.405Z,11.00
2019-05-17T09:23:32.401Z,11.00
2019-05-17T09:26:09.971Z,11.00
2019-05-17T09:28:43.337Z,11.00
2019-05-17T09:31:20.225Z,11.00
2019-05-17T09:33:52.010Z,11.00
2019-05-17T09:36:30.102Z,11.00
2019-05-17T09:39:29.383Z,11.00
2019-05-17T09:42:07.342Z,10.90
2019-05-17T09:44:40.513Z,10.90
2019-05-17T09:47:13.522Z,10.90
2019-05-17T09:49:46.611Z,10.80
2019-05-17T09:52:20.103Z,10.80
2019-05-17T09:54:53.972Z,10.80
2019-05-17T09:57:29.415Z,10.70
2019-05-17T10:00:02.814Z,10.70
2019-05-17T10:02:35.729Z,10.70
2019-05-17T10:05:10.594Z,10.70
2019-05-17T10:07:43.870Z,10.60
2019-05-17T10:10:20.715Z,10.60
2019-05-17T10:12:53.769Z,10.70
2019-05-17T10:15:26.637Z,10.70
2019-05-17T10:18:00.803Z,10.70
2019-05-17T10:20:36.551Z,10.70
2019-05-17T10:23:10.515Z,10.70
2019-05-17T10:25:43.567Z,10.80
2019-05-17T10:28:16.046Z,10.80
2019-05-17T10:30:51.917Z,10.80
2019-05-17T10:33:25.997Z,10.80
2019-05-17T10:36:00.553Z,10.80
2019-05-17T10:38:39.524Z,10.70
2019-05-17T10:41:10.386Z,10.70
2019-05-17T10:43:43.173Z,10.70
2019-05-17T10:46:16.127Z,10.80
2019-05-17T10:48:50.913Z,10.90
2019-05-17T10:51:24.345Z,10.90
2019-05-17T10:53:59.798Z,11.10
2019-05-17T10:56:32.431Z,11.10
2019-05-17T10:59:05.005Z,11.20
2019-05-17T11:01:37.829Z,11.30
2019-05-17T11:04:11.008Z,11.40
2019-05-17T11:06:43.876Z,11.50
2019-05-17T11:09:20.192Z,11.50
2019-05-17T11:11:51.457Z,11.50
2019-05-17T11:14:24.404Z,11.50
2019-05-17T11:16:57.332Z,11.40
2019-05-17T11:19:31.094Z,11.30
2019-05-17T11:22:06.545Z,11.20
2019-05-17T11:24:39.661Z,11.10
2019-05-17T11:27:12.602Z,11.10
2019-05-17T11:29:45.312Z,11.00
2019-05-17T11:32:22.083Z,10.90
2019-05-17T11:34:54.672Z,10.90
2019-05-17T11:37:27.588Z,10.80
2019-05-17T11:40:00.516Z,10.80
2019-05-17T11:42:40.163Z,10.70
2019-05-17T11:45:27.328Z,10.70
2019-05-17T11:47:54.865Z,10.60
2019-05-17T11:50:28.292Z,10.60
2019-05-17T11:53:01.048Z,10.60
2019-05-17T11:55:34.604Z,10.60
2019-05-17T12:01:51.696Z,10.50
2019-05-17T12:04:28.078Z,10.40
2019-05-17T12:07:00.841Z,10.40
2019-05-17T12:09:37.291Z,10.40
2019-05-17T12:12:07.551Z,10.40
2019-05-17T12:14:40.806Z,10.40
2019-05-17T12:17:14.507Z,10.30
2019-05-17T12:19:48.092Z,10.30
2019-05-17T12:22:21.072Z,10.30
2019-05-17T12:24:53.889Z,10.30
2019-05-17T12:27:26.622Z,10.20
2019-05-17T12:30:00.092Z,10.20
2019-05-17T12:32:32.799Z,10.20
2019-05-17T12:35:05.685Z,10.20
2019-05-17T12:37:42.316Z,10.20
2019-05-17T12:40:16.158Z,10.10
2019-05-17T12:42:48.812Z,10.10
2019-05-17T12:45:22.322Z,10.10
2019-05-17T12:47:58.066Z,10.10
2019-05-17T12:50:31.733Z,10.10
2019-05-17T12:53:05.049Z,10.00
2019-05-17T12:55:37.893Z,10.00
2019-05-17T12:58:10.675Z,10.00
2019-05-17T13:00:43.718Z,10.00
2019-05-17T13:03:16.397Z,10.00
2019-05-17T13:05:49.100Z,10.00
2019-05-17T13:08:22.960Z,10.00
2019-05-17T13:10:55.877Z,10.00
2019-05-17T13:13:29.176Z,9.90
2019-05-17T13:16:16.963Z,9.90
2019-05-17T13:18:36.410Z,9.90
2019-05-17T13:21:09.665Z,9.90
2019-05-17T13:23:42.624Z,9.90
2019-05-17T13:26:15.405Z,9.90
2019-05-17T13:28:48.415Z,9.90
2019-05-17T13:31:21.385Z,9.90
2019-05-17T13:33:54.370Z,9.90
2019-05-17T13:36:27.656Z,9.90
2019-05-17T13:39:00.765Z,9.90
2019-05-17T13:41:35.012Z,9.90
2019-05-17T13:44:08.158Z,9.90
2019-05-17T13:46:40.864Z,9.90
2019-05-17T13:49:13.701Z,10.00
2019-05-17T13:51:46.895Z,10.20
2019-05-17T13:54:19.907Z,10.30
2019-05-17T13:56:52.915Z,10.40
2019-05-17T13:59:25.721Z,10.40
2019-05-17T14:01:58.868Z,10.50
2019-05-17T14:04:31.667Z,10.50
2019-05-17T14:07:04.664Z,10.60
2019-05-17T14:09:37.663Z,10.70
2019-05-17T14:12:10.809Z,10.70
2019-05-17T14:14:44.006Z,10.80
2019-05-17T14:17:16.986Z,10.90
2019-05-17T14:19:49.990Z,11.00
2019-05-17T14:22:23.157Z,11.10
2019-05-17T14:24:55.990Z,11.10
2019-05-17T14:27:29.196Z,11.20
2019-05-17T14:30:02.177Z,11.20
2019-05-17T14:32:35.704Z,11.30
2019-05-17T14:35:09.110Z,11.30
2019-05-17T14:37:42.320Z,11.40
2019-05-17T14:40:15.409Z,11.40
2019-05-17T14:42:49.071Z,11.50
2019-05-17T14:45:22.688Z,11.50
2019-05-17T14:47:55.806Z,11.50
2019-05-17T14:50:28.680Z,11.50
2019-05-17T14:53:01.832Z,11.60
2019-05-17T14:55:34.745Z,11.60
2019-05-17T14:58:07.706Z,11.70
2019-05-17T15:00:40.656Z,11.70
2019-05-17T15:03:13.935Z,11.80
2019-05-17T15:05:46.818Z,11.80
2019-05-17T15:08:19.795Z,11.80
2019-05-17T15:10:52.674Z,11.80
2019-05-17T15:13:25.760Z,11.90
2019-05-17T15:15:58.615Z,11.90
2019-05-17T15:18:31.839Z,11.90
2019-05-17T15:21:04.690Z,11.90
2019-05-17T15:23:37.645Z,11.90
2019-05-17T15:26:10.704Z,11.90
2019-05-17T15:28:43.793Z,11.90
2019-05-17T15:31:16.940Z,11.90
2019-05-17T15:33:49.876Z,11.90
2019-05-17T15:36:23.091Z,11.90
2019-05-17T15:38:56.073Z,11.80
2019-05-17T15:41:29.255Z,11.80
2019-05-17T15:44:02.295Z,11.80
2019-05-17T15:46:36.337Z,11.80
2019-05-17T15:49:09.069Z,11.80
2019-05-17T15:51:42.022Z,11.80
2019-05-17T15:54:14.940Z,11.80
2019-05-17T15:56:48.186Z,11.80
2019-05-17T15:59:20.999Z,11.80
2019-05-17T16:01:54.703Z,11.80
2019-05-17T16:04:27.581Z,11.80
2019-05-17T16:07:00.749Z,11.80
2019-05-17T16:09:33.623Z,11.80
2019-05-17T16:12:06.760Z,11.80
2019-05-17T16:14:39.593Z,11.80
2019-05-17T16:17:12.633Z,11.80
2019-05-17T16:19:45.597Z,11.90
2019-05-17T16:22:19.058Z,11.90
2019-05-17T16:24:51.890Z,11.80
2019-05-17T16:27:25.205Z,11.80
2019-05-17T16:29:59.262Z,11.90
2019-05-17T16:32:32.301Z,11.90
2019-05-17T16:35:06.265Z,11.90
2019-05-17T16:37:39.193Z,11.90
2019-05-17T16:40:12.746Z,12.00
2019-05-17T16:42:45.426Z,12.00
2019-05-17T16:45:22.162Z,12.00
2019-05-17T16:47:55.048Z,12.00
2019-05-17T16:50:28.060Z,12.10
2019-05-17T16:53:06.059Z,12.10
2019-05-17T16:55:35.577Z,12.10
2019-05-17T16:58:09.074Z,12.10
2019-05-17T17:00:44.097Z,12.10
2019-05-17T17:03:16.924Z,12.00
2019-05-17T17:05:49.917Z,12.00
2019-05-17T17:08:22.671Z,12.00
2019-05-17T17:10:55.613Z,12.00
2019-05-17T17:13:33.109Z,12.00
2019-05-17T17:16:04.069Z,12.00
2019-05-17T17:18:37.208Z,12.00
2019-05-17T17:21:10.295Z,12.00
2019-05-17T17:23:43.188Z,12.00
2019-05-17T17:26:16.331Z,12.00
2019-05-17T17:28:49.044Z,12.00
2019-05-17T17:31:25.011Z,12.00
2019-05-17T17:33:57.381Z,12.00
2019-05-17T17:36:30.585Z,12.10
2019-05-17T17:39:03.434Z,12.10
2019-05-17T17:41:37.638Z,12.00
2019-05-17T17:44:10.432Z,12.00
2019-05-17T17:46:43.503Z,12.10
2019-05-17T17:49:16.951Z,12.10
2019-05-17T17:51:49.845Z,12.10
2019-05-17T17:54:22.845Z,12.10
2019-05-17T17:56:55.982Z,12.10
2019-05-17T17:59:30.536Z,12.10
2019-05-17T18:02:03.812Z,12.10
2019-05-17T18:04:37.099Z,12.10
2019-05-17T18:07:10.031Z,12.10
2019-05-17T18:09:43.096Z,12.20
2019-05-17T18:12:16.678Z,12.20
2019-05-17T18:14:50.316Z,12.20
2019-05-17T18:17:23.290Z,12.20
2019-05-17T18:19:56.351Z,12.20
2019-05-17T18:22:29.359Z,12.20
2019-05-17T18:25:02.500Z,12.30
2019-05-17T18:27:35.319Z,12.30
2019-05-17T18:30:09.264Z,12.30
2019-05-17T18:32:42.094Z,12.40
2019-05-17T18:35:15.008Z,12.40
2019-05-17T18:37:47.906Z,12.50
2019-05-17T18:40:21.013Z,12.50
2019-05-17T18:42:53.832Z,12.50
2019-05-17T18:45:26.928Z,12.50
2019-05-17T18:47:59.653Z,12.50
2019-05-17T18:50:33.366Z,12.60
2019-05-17T18:53:10.350Z,12.60
2019-05-17T18:55:40.831Z,12.60
2019-05-17T18:58:13.782Z,12.60
2019-05-17T19:00:46.954Z,12.60
2019-05-17T19:03:20.367Z,12.50
2019-05-17T19:05:53.372Z,12.50
2019-05-17T19:08:26.169Z,12.50
2019-05-17T19:10:58.764Z,12.50
2019-05-17T19:13:31.873Z,12.40
2019-05-17T19:16:04.803Z,12.40
2019-05-17T19:18:37.812Z,12.30
2019-05-17T19:21:10.924Z,12.30
2019-05-17T19:23:44.744Z,12.30
2019-05-17T19:26:17.257Z,12.30
2019-05-17T19:28:50.027Z,12.30
2019-05-17T19:31:22.809Z,12.30
2019-05-17T19:33:55.660Z,12.30
2019-05-17T19:36:28.643Z,12.30
2019-05-17T19:39:06.098Z,12.30
2019-05-17T19:41:38.796Z,12.30
2019-05-17T19:44:11.434Z,12.30
2019-05-17T19:46:44.126Z,12.40
2019-05-17T19:49:16.858Z,12.40
2019-05-17T19:51:52.775Z,12.50
2019-05-17T19:54:26.147Z,12.60
2019-05-17T19:56:58.983Z,12.50
2019-05-17T19:59:32.561Z,12.50
2019-05-17T20:02:06.630Z,12.40
2019-05-17T20:04:39.445Z,12.30
2019-05-17T20:07:13.557Z,12.20
2019-05-17T20:09:46.580Z,12.10
2019-05-17T20:12:21.930Z,12.10
2019-05-17T20:14:53.540Z,12.20
2019-05-17T20:17:26.114Z,12.40
2019-05-17T20:19:59.012Z,12.60
2019-05-17T20:22:38.569Z,12.80
2019-05-17T20:25:14.686Z,13.00
2019-05-17T20:27:45.688Z,13.20
2019-05-17T20:30:18.611Z,13.30
2019-05-17T20:32:51.317Z,13.50
2019-05-17T20:35:24.442Z,13.60
2019-05-17T20:40:47.278Z,14.10
2019-05-17T20:43:19.848Z,14.30
2019-05-17T20:45:52.426Z,14.50
2019-05-17T20:48:26.491Z,14.60
2019-05-17T20:50:59.201Z,14.60
2019-05-17T20:53:32.177Z,14.80
2019-05-17T20:56:32.374Z,14.90
2019-05-17T20:58:56.202Z,15.00
2019-05-17T21:01:29.210Z,15.20
2019-05-17T21:04:08.511Z,15.20
2019-05-17T21:06:41.936Z,15.30
2019-05-17T21:09:18.474Z,15.40
2019-05-17T21:11:55.540Z,15.60
2019-05-17T21:14:28.132Z,15.60
2019-05-17T21:17:03.649Z,15.70
2019-05-17T21:19:35.281Z,15.80
2019-05-17T21:22:09.649Z,15.90
2019-05-17T21:24:43.756Z,15.90
2019-05-17T21:27:30.153Z,15.90
2019-05-17T21:30:04.164Z,15.90
2019-05-17T21:32:37.157Z,16.00
2019-05-17T21:35:11.197Z,16.10
2019-05-17T21:37:44.227Z,16.20
2019-05-17T21:40:17.314Z,16.30
2019-05-17T21:42:50.481Z,16.50
2019-05-17T21:45:23.385Z,16.70
2019-05-17T21:47:58.878Z,16.90
2019-05-17T21:50:35.557Z,17.00
2019-05-17T21:53:08.536Z,17.10
2019-05-17T21:55:41.254Z,17.20
2019-05-17T21:58:14.763Z,17.30
2019-05-17T22:00:56.406Z,17.40
2019-05-17T22:03:32.754Z,17.40
2019-05-17T22:06:06.019Z,17.30
2019-05-17T22:08:40.139Z,17.20
2019-05-17T22:11:12.704Z,17.10
2019-05-17T22:13:45.573Z,17.10
2019-05-17T22:16:20.066Z,17.10
2019-05-17T22:18:52.090Z,17.10
2019-05-17T22:21:28.547Z,17.10
2019-05-17T22:24:00.681Z,17.10
2019-05-17T22:26:35.609Z,17.10
2019-05-17T22:29:11.033Z,17.20
2019-05-17T22:31:45.882Z,17.40
2019-05-17T22:34:25.531Z,17.50
2019-05-17T22:37:09.042Z,17.70
2019-05-17T22:39:48.580Z,18.00
2019-05-17T22:42:19.687Z,18.40
2019-05-17T22:44:55.176Z,18.80
2019-05-17T22:47:33.254Z,19.10
2019-05-17T22:50:15.296Z,19.30
2019-05-17T22:52:57.954Z,19.30
2019-05-17T22:55:39.782Z,19.00
2019-05-17T22:58:15.725Z,19.20
2019-05-17T23:00:53.160Z,19.20
2019-05-17T23:03:35.317Z,19.30
2019-05-17T23:06:14.159Z,19.30
2019-05-17T23:09:00.047Z,19.30
2019-05-17T23:11:33.040Z,19.30
2019-05-17T23:14:06.193Z,19.30
2019-05-17T23:16:51.243Z,19.20
2019-05-17T23:19:23.175Z,19.00
2019-05-17T23:22:06.700Z,18.70
2019-05-17T23:24:46.648Z,18.30
2019-05-17T23:27:25.779Z,18.00
2019-05-17T23:30:05.897Z,17.80
2019-05-17T23:32:44.638Z,17.60
2019-05-17T23:35:17.507Z,17.40
2019-05-17T23:37:54.946Z,17.20
2019-05-17T23:43:33.256Z,17.00
2019-05-17T23:46:29.393Z,16.90
2019-05-17T23:49:03.597Z,17.10
2019-05-17T23:51:41.613Z,17.30
2019-05-17T23:54:19.086Z,17.50
2019-05-17T23:56:50.888Z,17.70
2019-05-17T23:59:27.230Z,17.70
